createdAt,value
2022-12-18T00:02:05.125Z,47.35
2022-12-18T00:04:33.062Z,52.25
2022-12-18T00:07:00.979Z,40.55
2022-12-18T00:09:31.161Z,40.67
2022-12-18T00:14:46.830Z,44.20
2022-12-18T00:17:15.562Z,50.70
2022-12-18T00:19:43.636Z,39.97
2022-12-18T00:22:11.619Z,36.72
2022-12-18T00:24:39.485Z,45.15
2022-12-18T00:27:07.380Z,38.90
2022-12-18T00:29:36.647Z,47.53
2022-12-18T00:32:04.778Z,38.17
2022-12-18T00:34:32.763Z,43.78
2022-12-18T00:37:00.572Z,40.53
2022-12-18T00:39:28.460Z,50.50
2022-12-18T00:42:22.077Z,46.35
2022-12-18T00:44:51.323Z,55.45
2022-12-18T00:47:19.226Z,48.17
2022-12-18T00:49:47.157Z,52.45
2022-12-18T00:52:15.113Z,48.10
2022-12-18T00:54:43.024Z,48.60
2022-12-18T00:57:11.053Z,50.65
2022-12-18T00:59:38.886Z,55.03
2022-12-18T01:02:08.223Z,46.80
2022-12-18T01:04:36.984Z,55.20
2022-12-18T01:07:04.859Z,47.70
2022-12-18T01:09:32.954Z,46.42
2022-12-18T01:12:00.807Z,55.88
2022-12-18T01:14:28.900Z,56.30
2022-12-18T01:16:56.947Z,52.03
2022-12-18T01:19:26.237Z,51.30
2022-12-18T01:21:54.117Z,49.22
2022-12-18T01:24:22.094Z,52.55
2022-12-18T01:26:50.556Z,49.83
2022-12-18T01:29:18.599Z,48.63
2022-12-18T01:31:46.554Z,58.13
2022-12-18T01:34:14.473Z,44.75
2022-12-18T01:36:44.597Z,54.78
2022-12-18T01:39:14.549Z,57.63
2022-12-18T01:42:01.807Z,48.15
2022-12-18T01:45:09.806Z,58.65
2022-12-18T01:47:40.853Z,51.53
2022-12-18T01:50:12.499Z,46.17
2022-12-18T01:52:44.638Z,53.22
2022-12-18T01:55:14.447Z,54.00
2022-12-18T01:57:43.359Z,51.97
2022-12-18T02:00:16.090Z,56.30
2022-12-18T02:02:46.348Z,58.78
2022-12-18T02:05:18.685Z,59.22
2022-12-18T02:08:03.374Z,52.70
2022-12-18T02:10:41.544Z,55.08
2022-12-18T02:13:16.644Z,51.17
2022-12-18T02:15:55.687Z,54.13
2022-12-18T02:18:30.470Z,49.65
2022-12-18T02:21:05.945Z,52.30
2022-12-18T02:23:49.118Z,58.22
2022-12-18T02:26:22.442Z,76.28
2022-12-18T02:28:56.671Z,54.67
2022-12-18T02:31:29.214Z,59.40
2022-12-18T02:34:00.765Z,47.85
2022-12-18T02:36:30.905Z,49.43
2022-12-18T02:39:00.364Z,50.63
2022-12-18T02:41:31.956Z,55.95
2022-12-18T02:44:08.508Z,56.45
2022-12-18T02:46:38.902Z,52.03
2022-12-18T02:49:24.048Z,47.22
2022-12-18T02:51:55.630Z,52.28
2022-12-18T02:54:45.489Z,57.05
2022-12-18T02:57:24.951Z,55.38
2022-12-18T03:00:00.569Z,54.75
2022-12-18T03:02:36.014Z,52.65
2022-12-18T03:05:09.795Z,47.60
2022-12-18T03:07:42.200Z,52.05
2022-12-18T03:10:16.444Z,51.53
2022-12-18T03:12:54.225Z,53.95
2022-12-18T03:15:26.988Z,54.45
2022-12-18T03:18:06.410Z,51.10
2022-12-18T03:20:37.044Z,55.88
2022-12-18T03:23:11.992Z,51.33
2022-12-18T03:25:43.402Z,51.80
2022-12-18T03:28:16.885Z,56.58
2022-12-18T03:30:48.292Z,58.70
2022-12-18T03:33:21.596Z,58.75
2022-12-18T03:35:52.432Z,69.40
2022-12-18T03:38:21.235Z,54.85
2022-12-18T03:41:01.789Z,51.60
2022-12-18T03:43:47.809Z,63.17
2022-12-18T03:46:28.522Z,72.38
2022-12-18T03:49:03.851Z,64.28
2022-12-18T03:51:40.452Z,61.05
2022-12-18T03:54:11.979Z,70.20
2022-12-18T03:56:50.548Z,71.97
2022-12-18T03:59:21.738Z,78.70
2022-12-18T04:01:54.191Z,86.47
2022-12-18T04:04:25.353Z,73.75
2022-12-18T04:06:54.625Z,86.05
2022-12-18T04:09:24.880Z,85.75
2022-12-18T04:11:54.519Z,73.35
2022-12-18T04:14:24.531Z,83.28
2022-12-18T04:16:56.130Z,83.68
2022-12-18T04:19:30.851Z,88.75
2022-12-18T04:21:59.947Z,90.07
2022-12-18T04:24:29.153Z,88.93
2022-12-18T04:27:09.267Z,96.93
2022-12-18T04:29:45.100Z,83.35
2022-12-18T04:32:13.061Z,99.30
2022-12-18T04:34:43.386Z,92.55
2022-12-18T04:37:11.553Z,91.40
2022-12-18T04:39:40.766Z,106.55
2022-12-18T04:42:15.790Z,90.05
2022-12-18T04:44:45.629Z,82.97
2022-12-18T04:47:13.562Z,90.57
2022-12-18T04:49:41.405Z,82.68
2022-12-18T04:52:09.315Z,79.53
2022-12-18T04:54:37.189Z,98.90
2022-12-18T04:57:05.181Z,94.65
2022-12-18T04:59:33.050Z,83.25
2022-12-18T05:02:02.343Z,84.40
2022-12-18T05:04:30.332Z,81.78
2022-12-18T05:06:58.169Z,78.38
2022-12-18T05:09:26.037Z,81.40
2022-12-18T05:11:54.678Z,80.97
2022-12-18T05:14:22.582Z,84.22
2022-12-18T05:16:50.452Z,77.60
2022-12-18T05:19:19.884Z,84.93
2022-12-18T05:21:47.735Z,81.45
2022-12-18T05:24:15.652Z,76.80
2022-12-18T05:26:43.980Z,77.38
2022-12-18T05:29:13.198Z,67.20
2022-12-18T05:31:42.745Z,75.43
2022-12-18T05:34:11.504Z,62.08
2022-12-18T05:36:41.229Z,71.75
2022-12-18T05:39:09.649Z,72.57
2022-12-18T05:41:37.954Z,68.35
2022-12-18T05:44:06.011Z,82.53
2022-12-18T05:46:34.294Z,83.07
2022-12-18T05:49:03.044Z,79.32
2022-12-18T05:51:30.885Z,88.53
2022-12-18T05:54:00.086Z,73.82
2022-12-18T05:56:27.973Z,73.68
2022-12-18T05:58:56.150Z,72.93
2022-12-18T06:01:27.858Z,81.20
2022-12-18T06:03:56.031Z,84.65
2022-12-18T06:06:27.090Z,74.75
2022-12-18T06:08:56.174Z,79.32
2022-12-18T06:11:27.145Z,86.55
2022-12-18T06:13:59.170Z,83.05
2022-12-18T06:16:27.934Z,84.82
2022-12-18T06:18:57.695Z,88.30
2022-12-18T06:21:25.621Z,91.65
2022-12-18T06:23:53.558Z,83.47
2022-12-18T06:26:27.609Z,81.55
2022-12-18T06:28:57.806Z,89.72
2022-12-18T06:31:26.625Z,88.18
2022-12-18T06:33:54.498Z,83.38
2022-12-18T06:36:22.606Z,83.35
2022-12-18T06:38:50.470Z,91.82
2022-12-18T06:41:20.282Z,85.47
2022-12-18T06:43:48.137Z,80.18
2022-12-18T06:46:17.781Z,92.70
2022-12-18T06:48:49.145Z,88.45
2022-12-18T06:51:19.104Z,87.05
2022-12-18T06:53:46.999Z,78.55
2022-12-18T06:56:14.996Z,87.45
2022-12-18T06:58:43.019Z,84.75
2022-12-18T07:01:13.016Z,82.97
2022-12-18T07:03:44.021Z,78.78
2022-12-18T07:06:17.056Z,70.35
2022-12-18T07:08:44.933Z,81.13
2022-12-18T07:11:13.174Z,65.72
2022-12-18T07:13:41.401Z,69.95
2022-12-18T07:16:17.121Z,73.80
2022-12-18T07:18:47.970Z,67.65
2022-12-18T07:21:17.800Z,73.43
2022-12-18T07:23:48.821Z,66.28
2022-12-18T07:26:19.299Z,68.43
2022-12-18T07:28:47.235Z,63.03
2022-12-18T07:31:17.058Z,67.45
2022-12-18T07:33:47.053Z,68.10
2022-12-18T07:36:16.462Z,57.83
2022-12-18T07:38:44.467Z,59.35
2022-12-18T07:41:13.910Z,66.18
2022-12-18T07:43:43.505Z,70.38
2022-12-18T07:46:13.359Z,56.13
2022-12-18T07:48:41.533Z,55.22
2022-12-18T07:51:11.550Z,67.00
2022-12-18T07:53:39.789Z,61.15
2022-12-18T07:58:58.089Z,73.97
2022-12-18T08:01:26.369Z,68.40
2022-12-18T08:03:54.408Z,75.55
2022-12-18T08:06:24.249Z,77.18
2022-12-18T08:08:53.664Z,72.32
2022-12-18T08:11:21.666Z,71.55
2022-12-18T08:13:49.665Z,67.50
2022-12-18T08:16:18.330Z,64.05
2022-12-18T08:18:46.333Z,70.55
2022-12-18T08:21:16.977Z,64.20
2022-12-18T08:23:47.170Z,67.18
2022-12-18T08:26:15.972Z,59.63
2022-12-18T08:28:44.292Z,71.57
2022-12-18T08:31:12.766Z,64.03
2022-12-18T08:33:41.605Z,62.35
2022-12-18T08:36:11.935Z,72.28
2022-12-18T08:38:40.276Z,68.40
2022-12-18T08:41:12.330Z,64.35
2022-12-18T08:43:57.797Z,58.92
2022-12-18T08:46:27.462Z,65.05
2022-12-18T08:48:56.958Z,58.85
2022-12-18T08:51:24.993Z,56.75
2022-12-18T08:53:52.830Z,55.25
2022-12-18T08:56:22.082Z,60.47
2022-12-18T08:58:52.941Z,60.40
2022-12-18T09:01:21.518Z,58.75
2022-12-18T09:03:49.865Z,54.63
2022-12-18T09:06:18.698Z,46.70
2022-12-18T09:08:47.096Z,67.90
2022-12-18T09:11:16.665Z,57.78
2022-12-18T09:13:46.029Z,62.13
2022-12-18T09:16:13.981Z,55.10
2022-12-18T09:18:42.462Z,57.72
2022-12-18T09:21:12.127Z,54.83
2022-12-18T09:23:40.102Z,57.55
2022-12-18T09:26:07.990Z,54.40
2022-12-18T09:28:36.151Z,53.30
2022-12-18T09:31:09.528Z,54.60
2022-12-18T09:33:37.652Z,59.05
2022-12-18T09:36:08.261Z,62.03
2022-12-18T09:38:37.363Z,54.55
2022-12-18T09:41:08.486Z,49.85
2022-12-18T09:43:43.208Z,61.80
2022-12-18T09:46:17.883Z,60.42
2022-12-18T09:48:50.214Z,49.10
2022-12-18T09:51:21.699Z,49.45
2022-12-18T09:53:54.481Z,54.50
2022-12-18T09:58:57.284Z,57.63
2022-12-18T10:01:36.300Z,61.22
2022-12-18T10:04:11.452Z,63.63
2022-12-18T10:06:47.918Z,66.50
2022-12-18T10:09:26.382Z,62.08
2022-12-18T10:12:05.102Z,64.60
2022-12-18T10:14:40.544Z,55.42
2022-12-18T10:17:20.310Z,67.03
2022-12-18T10:19:53.474Z,57.60
2022-12-18T10:22:31.058Z,58.15
2022-12-18T10:25:06.673Z,61.58
2022-12-18T10:27:34.954Z,62.40
2022-12-18T10:30:10.113Z,59.85
2022-12-18T10:32:39.665Z,57.45
2022-12-18T10:35:17.679Z,60.55
2022-12-18T10:38:08.581Z,61.40
2022-12-18T10:40:52.084Z,71.70
2022-12-18T10:43:24.010Z,58.53
2022-12-18T10:46:15.514Z,65.60
2022-12-18T10:48:54.837Z,70.85
2022-12-18T10:51:25.618Z,54.95
2022-12-18T10:53:56.756Z,56.95
2022-12-18T10:56:26.916Z,64.45
2022-12-18T10:59:00.248Z,59.28
2022-12-18T11:01:28.348Z,55.90
2022-12-18T11:04:10.660Z,61.10
2022-12-18T11:06:55.891Z,65.50
2022-12-18T11:09:25.467Z,60.55
2022-12-18T11:11:55.542Z,57.58
2022-12-18T11:14:30.834Z,65.38
2022-12-18T11:19:55.151Z,72.93
2022-12-18T11:22:27.428Z,58.97
2022-12-18T11:25:30.346Z,64.38
2022-12-18T11:27:51.562Z,67.38
2022-12-18T11:30:26.135Z,57.47
2022-12-18T11:32:59.100Z,56.95
2022-12-18T11:38:06.759Z,52.58
2022-12-18T11:40:41.334Z,58.10
2022-12-18T11:43:15.317Z,49.97
2022-12-18T11:45:49.613Z,56.53
2022-12-18T11:48:23.616Z,60.70
2022-12-18T11:50:55.261Z,63.60
2022-12-18T11:53:23.976Z,52.90
2022-12-18T11:56:03.019Z,59.25
2022-12-18T11:58:44.811Z,50.72
2022-12-18T12:01:25.051Z,51.10
2022-12-18T12:04:13.262Z,58.05
2022-12-18T12:06:52.783Z,50.78
2022-12-18T12:09:28.309Z,38.03
2022-12-18T12:12:22.970Z,54.17
2022-12-18T12:14:59.188Z,49.80
2022-12-18T12:17:36.826Z,51.03
2022-12-18T12:20:18.590Z,57.05
2022-12-18T12:23:00.709Z,50.88
2022-12-18T12:25:42.586Z,54.65
2022-12-18T12:28:25.378Z,45.88
2022-12-18T12:31:08.326Z,53.45
2022-12-18T12:33:50.294Z,57.28
2022-12-18T12:36:27.736Z,54.50
2022-12-18T12:54:54.131Z,51.25
2022-12-18T12:57:25.478Z,47.53
2022-12-18T13:00:03.042Z,46.05
2022-12-18T13:02:37.823Z,38.72
2022-12-18T13:05:17.981Z,41.30
2022-12-18T13:07:52.607Z,46.28
2022-12-18T13:10:38.183Z,45.40
2022-12-18T13:13:09.368Z,51.95
2022-12-18T13:15:41.703Z,42.78
2022-12-18T13:18:19.546Z,48.88
2022-12-18T13:20:55.299Z,44.83
2022-12-18T13:23:45.156Z,47.97
2022-12-18T13:26:35.268Z,44.67
2022-12-18T13:29:05.237Z,44.65
2022-12-18T13:32:09.990Z,50.38
2022-12-18T13:34:38.422Z,54.58
2022-12-18T13:37:42.899Z,51.28
2022-12-18T13:40:58.708Z,54.38
2022-12-18T13:43:33.203Z,51.58
2022-12-18T13:46:04.637Z,52.20
2022-12-18T13:48:35.999Z,47.65
2022-12-18T13:51:07.735Z,52.53
2022-12-18T13:53:41.546Z,46.00
2022-12-18T13:56:09.852Z,45.80
2022-12-18T13:58:39.893Z,48.35
2022-12-18T14:01:23.841Z,49.08
2022-12-18T14:03:51.882Z,47.60
2022-12-18T14:06:19.930Z,51.92
2022-12-18T14:08:49.204Z,48.38
2022-12-18T14:11:25.886Z,54.97
2022-12-18T14:13:56.339Z,49.05
2022-12-18T14:16:25.094Z,55.88
2022-12-18T14:19:02.232Z,56.00
2022-12-18T14:21:40.381Z,52.92
2022-12-18T14:24:17.564Z,58.08
2022-12-18T14:26:48.403Z,57.38
2022-12-18T14:29:25.299Z,55.92
2022-12-18T14:32:23.561Z,57.03
2022-12-18T14:34:53.252Z,53.20
2022-12-18T14:37:24.267Z,55.55
2022-12-18T14:40:01.263Z,53.50
2022-12-18T14:42:33.359Z,58.72
2022-12-18T14:45:41.354Z,47.15
2022-12-18T14:48:11.889Z,52.17
2022-12-18T14:50:41.711Z,51.22
2022-12-18T14:53:24.899Z,49.13
2022-12-18T14:55:53.269Z,46.97
2022-12-18T14:58:21.179Z,48.03
2022-12-18T15:00:50.569Z,36.95
2022-12-18T15:03:21.324Z,44.40
2022-12-18T15:05:50.099Z,42.47
2022-12-18T15:08:33.128Z,38.40
2022-12-18T15:11:01.402Z,40.25
2022-12-18T15:13:29.694Z,40.55
2022-12-18T15:16:04.161Z,44.80
2022-12-18T15:18:37.074Z,41.17
2022-12-18T15:21:11.742Z,40.78
2022-12-18T15:23:48.941Z,35.47
2022-12-18T15:26:18.363Z,39.67
2022-12-18T15:28:48.198Z,38.25
2022-12-18T15:31:30.232Z,34.97
2022-12-18T15:34:16.229Z,32.33
2022-12-18T15:36:44.072Z,33.75
2022-12-18T15:39:14.434Z,34.53
2022-12-18T15:42:02.548Z,36.47
2022-12-18T15:44:29.648Z,40.33
2022-12-18T15:46:59.068Z,35.83
2022-12-18T15:49:26.971Z,36.38
2022-12-18T15:51:56.966Z,37.90
2022-12-18T15:54:38.908Z,41.88
2022-12-18T15:57:24.821Z,44.03
2022-12-18T15:59:53.651Z,44.83
2022-12-18T16:02:24.654Z,38.08
2022-12-18T16:04:53.344Z,38.03
2022-12-18T16:07:24.989Z,35.90
2022-12-18T16:09:54.129Z,38.20
2022-12-18T16:12:25.803Z,35.15
2022-12-18T16:14:54.077Z,37.38
2022-12-18T16:17:23.354Z,33.22
2022-12-18T16:19:51.293Z,32.53
2022-12-18T16:22:24.114Z,29.33
2022-12-18T16:24:53.635Z,32.28
2022-12-18T16:27:22.064Z,30.15
2022-12-18T16:29:50.398Z,33.30
2022-12-18T16:32:20.910Z,35.88
2022-12-18T16:34:50.279Z,30.58
2022-12-18T16:37:18.377Z,39.67
2022-12-18T16:39:46.462Z,35.80
2022-12-18T16:42:17.457Z,38.80
2022-12-18T16:44:46.845Z,39.92
2022-12-18T16:47:15.601Z,34.50
2022-12-18T16:49:45.235Z,36.60
2022-12-18T16:52:15.478Z,36.83
2022-12-18T16:54:43.704Z,42.40
2022-12-18T16:57:14.259Z,36.95
2022-12-18T16:59:42.302Z,37.78
2022-12-18T17:02:15.597Z,45.28
2022-12-18T17:04:45.715Z,41.70
2022-12-18T17:07:15.698Z,42.60
2022-12-18T17:09:43.554Z,42.03
2022-12-18T17:12:11.445Z,41.45
2022-12-18T17:14:39.553Z,39.13
2022-12-18T17:17:23.971Z,43.80
2022-12-18T17:19:52.920Z,41.72
2022-12-18T17:22:24.182Z,36.63
2022-12-18T17:24:52.052Z,45.05
2022-12-18T17:27:19.869Z,42.08
2022-12-18T17:29:48.812Z,48.95
2022-12-18T17:32:17.178Z,45.75
2022-12-18T17:34:45.221Z,48.17
2022-12-18T17:37:13.158Z,43.65
2022-12-18T17:39:43.034Z,46.58
2022-12-18T17:42:14.973Z,42.70
2022-12-18T17:44:44.084Z,52.53
2022-12-18T17:47:13.172Z,48.75
2022-12-18T17:49:41.404Z,46.25
2022-12-18T17:52:09.235Z,52.95
2022-12-18T17:54:39.679Z,44.30
2022-12-18T17:57:09.223Z,54.15
2022-12-18T17:59:37.084Z,50.25
2022-12-18T18:02:05.277Z,49.28
2022-12-18T18:04:33.386Z,47.17
2022-12-18T18:07:01.260Z,47.78
2022-12-18T18:09:29.293Z,46.03
2022-12-18T18:12:26.115Z,47.60
2022-12-18T18:14:55.598Z,49.22
2022-12-18T18:17:23.450Z,42.65
2022-12-18T18:19:51.294Z,46.53
2022-12-18T18:22:20.091Z,48.60
2022-12-18T18:24:48.102Z,49.28
2022-12-18T18:27:16.655Z,46.83
2022-12-18T18:29:44.852Z,54.78
2022-12-18T18:32:14.123Z,55.00
2022-12-18T18:34:42.173Z,54.88
2022-12-18T18:37:11.082Z,53.95
2022-12-18T18:39:39.219Z,63.75
2022-12-18T18:42:07.294Z,52.40
2022-12-18T18:44:35.408Z,55.88
2022-12-18T18:47:03.583Z,53.65
2022-12-18T18:49:35.561Z,55.25
2022-12-18T18:52:03.512Z,52.63
2022-12-18T18:54:31.424Z,62.83
2022-12-18T18:59:47.923Z,57.13
2022-12-18T19:02:17.735Z,58.60
2022-12-18T19:04:47.298Z,56.10
2022-12-18T19:07:18.476Z,52.67
2022-12-18T19:09:54.140Z,56.63
2022-12-18T19:12:39.989Z,50.38
2022-12-18T19:15:09.243Z,62.88
2022-12-18T19:17:37.541Z,54.58
2022-12-18T19:20:08.501Z,60.30
2022-12-18T19:22:39.691Z,62.08
2022-12-18T19:25:09.588Z,53.03
2022-12-18T19:27:40.124Z,64.13
2022-12-18T19:30:09.429Z,64.30
2022-12-18T19:32:37.316Z,66.95
2022-12-18T19:35:07.256Z,57.80
2022-12-18T19:37:35.974Z,59.65
2022-12-18T19:40:06.667Z,52.78
2022-12-18T19:42:40.639Z,59.75
2022-12-18T19:45:09.238Z,62.40
2022-12-18T19:47:36.991Z,60.35
2022-12-18T19:50:05.308Z,53.47
2022-12-18T19:52:34.861Z,65.40
2022-12-18T19:55:02.672Z,60.45
2022-12-18T19:57:32.410Z,64.47
2022-12-18T20:00:00.336Z,63.00
2022-12-18T20:02:28.410Z,56.55
2022-12-18T20:04:56.410Z,59.05
2022-12-18T20:07:24.236Z,60.17
2022-12-18T20:10:01.417Z,59.63
2022-12-18T20:12:33.466Z,59.40
2022-12-18T20:15:01.537Z,62.13
2022-12-18T20:17:30.090Z,68.07
2022-12-18T20:19:59.184Z,63.03
2022-12-18T20:22:27.089Z,62.40
2022-12-18T20:24:56.434Z,60.58
2022-12-18T20:27:24.508Z,64.43
2022-12-18T20:29:52.414Z,60.85
2022-12-18T20:32:20.602Z,54.63
2022-12-18T20:34:49.042Z,56.47
2022-12-18T20:37:17.622Z,56.22
2022-12-18T20:39:47.085Z,54.25
2022-12-18T20:42:16.841Z,61.17
2022-12-18T20:44:45.692Z,72.88
2022-12-18T20:47:13.829Z,55.72
2022-12-18T20:49:42.686Z,59.03
2022-12-18T20:52:13.557Z,45.90
2022-12-18T20:54:41.423Z,56.63
2022-12-18T20:57:09.378Z,59.40
2022-12-18T20:59:40.900Z,60.70
2022-12-18T21:02:14.684Z,59.05
2022-12-18T21:04:42.948Z,52.75
2022-12-18T21:07:11.241Z,55.58
2022-12-18T21:09:39.445Z,53.97
2022-12-18T21:12:29.416Z,56.13
2022-12-18T21:15:02.757Z,59.75
2022-12-18T21:17:30.760Z,54.83
2022-12-18T21:20:02.461Z,55.00
2022-12-18T21:22:30.609Z,58.40
2022-12-18T21:24:58.481Z,58.35
2022-12-18T21:27:26.388Z,51.72
2022-12-18T21:29:54.221Z,59.70
2022-12-18T21:32:24.720Z,58.20
2022-12-18T21:34:56.747Z,54.10
2022-12-18T21:37:24.724Z,59.08
2022-12-18T21:39:52.670Z,55.92
2022-12-18T21:42:37.989Z,56.15
2022-12-18T21:45:06.510Z,57.67
2022-12-18T21:47:35.792Z,54.03
2022-12-18T21:50:03.620Z,64.68
2022-12-18T21:52:32.742Z,54.22
2022-12-18T21:55:08.515Z,58.72
2022-12-18T21:57:37.589Z,56.85
2022-12-18T22:00:06.961Z,47.08
2022-12-18T22:02:42.251Z,49.58
2022-12-18T22:05:10.655Z,49.78
2022-12-18T22:07:39.533Z,50.65
2022-12-18T22:10:08.445Z,53.50
2022-12-18T22:12:43.381Z,50.55
2022-12-18T22:15:14.345Z,55.47
2022-12-18T22:17:51.203Z,57.63
2022-12-18T22:20:23.367Z,55.50
2022-12-18T22:22:52.526Z,58.15
2022-12-18T22:25:20.406Z,54.50
2022-12-18T22:28:08.213Z,56.30
2022-12-18T22:30:35.125Z,49.17
2022-12-18T22:33:05.119Z,57.80
2022-12-18T22:35:33.019Z,50.58
2022-12-18T22:38:01.940Z,53.13
2022-12-18T22:40:30.377Z,51.22
2022-12-18T22:42:58.239Z,51.15
2022-12-18T22:45:26.474Z,41.40
2022-12-18T22:47:54.482Z,46.47
2022-12-18T22:50:23.748Z,51.85
2022-12-18T22:52:51.571Z,45.95
2022-12-18T22:55:19.436Z,51.40
2022-12-18T22:57:49.063Z,50.83
2022-12-18T23:00:21.008Z,47.55
2022-12-18T23:02:59.314Z,52.47
2022-12-18T23:05:31.056Z,47.45
2022-12-18T23:07:59.506Z,49.47
2022-12-18T23:10:28.458Z,46.20
2022-12-18T23:12:56.285Z,48.30
2022-12-18T23:15:28.314Z,45.42
2022-12-18T23:17:58.423Z,54.28
2022-12-18T23:20:27.312Z,46.38
2022-12-18T23:22:57.990Z,49.03
2022-12-18T23:25:25.923Z,51.75
2022-12-18T23:27:53.772Z,50.47
2022-12-18T23:30:21.756Z,44.47
2022-12-18T23:32:49.552Z,50.80
2022-12-18T23:35:18.203Z,43.80
2022-12-18T23:38:03.674Z,47.42
2022-12-18T23:40:32.988Z,39.03
2022-12-18T23:43:01.213Z,42.95
2022-12-18T23:45:29.230Z,40.10
2022-12-18T23:47:57.042Z,44.20
2022-12-18T23:50:29.483Z,48.05
2022-12-18T23:53:02.527Z,42.40
2022-12-18T23:55:38.509Z,44.35
2022-12-18T23:58:06.673Z,44.63
